sensor_id;sensor_type;location;lat;lon;timestamp;pressure;altitude;pressure_sealevel;temperature;humidity
23321;BME280;33376;51.306;4.752;2023-04-08T00:01:27;102653.88;;;9.44;nan
23321;BME280;33376;51.306;4.752;2023-04-08T00:03:52;102646.78;;;9.45;nan
23321;BME280;33376;51.306;4.752;2023-04-08T00:06:17;102645.03;;;9.45;nan
23321;BME280;33376;51.306;4.752;2023-04-08T00:08:42;102644.88;;;9.51;nan
23321;BME280;33376;51.306;4.752;2023-04-08T00:11:08;102647.56;;;9.50;nan
23321;BME280;33376;51.306;4.752;2023-04-08T00:13:33;102648.53;;;9.47;nan
23321;BME280;33376;51.306;4.752;2023-04-08T00:15:58;102640.75;;;9.40;nan
23321;BME280;33376;51.306;4.752;2023-04-08T00:18:23;102640.72;;;9.41;nan
23321;BME280;33376;51.306;4.752;2023-04-08T00:20:49;102644.22;;;9.42;nan
23321;BME280;33376;51.306;4.752;2023-04-08T00:23:14;102630.16;;;9.40;nan
23321;BME280;33376;51.306;4.752;2023-04-08T00:25:40;102631.00;;;9.40;nan
23321;BME280;33376;51.306;4.752;2023-04-08T00:28:05;102632.00;;;9.36;nan
23321;BME280;33376;51.306;4.752;2023-04-08T00:30:30;102624.19;;;9.29;nan
23321;BME280;33376;51.306;4.752;2023-04-08T00:32:56;102631.09;;;9.36;nan
23321;BME280;33376;51.306;4.752;2023-04-08T00:35:21;102628.53;;;9.33;nan
23321;BME280;33376;51.306;4.752;2023-04-08T00:37:46;102623.16;;;9.36;nan
23321;BME280;33376;51.306;4.752;2023-04-08T00:40:12;102620.53;;;9.36;nan
23321;BME280;33376;51.306;4.752;2023-04-08T00:42:37;102627.63;;;9.34;nan
23321;BME280;33376;51.306;4.752;2023-04-08T00:45:02;102624.03;;;9.38;nan
23321;BME280;33376;51.306;4.752;2023-04-08T00:47:27;102622.31;;;9.34;nan
23321;BME280;33376;51.306;4.752;2023-04-08T00:49:53;102617.88;;;9.36;nan
23321;BME280;33376;51.306;4.752;2023-04-08T00:52:18;102623.94;;;9.41;nan
23321;BME280;33376;51.306;4.752;2023-04-08T00:54:43;102619.53;;;9.41;nan
23321;BME280;33376;51.306;4.752;2023-04-08T00:57:08;102617.81;;;9.39;nan
23321;BME280;33376;51.306;4.752;2023-04-08T00:59:34;102615.16;;;9.39;nan
23321;BME280;33376;51.306;4.752;2023-04-08T01:02:20;102617.84;;;9.37;nan
23321;BME280;33376;51.306;4.752;2023-04-08T01:05:00;102612.63;;;9.34;nan
23321;BME280;33376;51.306;4.752;2023-04-08T01:07:26;102607.25;;;9.37;nan
23321;BME280;33376;51.306;4.752;2023-04-08T01:09:56;102618.72;;;9.38;nan
23321;BME280;33376;51.306;4.752;2023-04-08T01:12:26;102606.34;;;9.40;nan
23321;BME280;33376;51.306;4.752;2023-04-08T01:14:55;102615.09;;;9.42;nan
23321;BME280;33376;51.306;4.752;2023-04-08T01:17:21;102609.94;;;9.36;nan
23321;BME280;33376;51.306;4.752;2023-04-08T01:19:46;102612.41;;;9.43;nan
23321;BME280;33376;51.306;4.752;2023-04-08T01:22:26;102613.44;;;9.38;nan
23321;BME280;33376;51.306;4.752;2023-04-08T01:24:54;102611.63;;;9.40;nan
23321;BME280;33376;51.306;4.752;2023-04-08T01:27:21;102615.38;;;9.30;nan
23321;BME280;33376;51.306;4.752;2023-04-08T01:29:47;102610.06;;;9.30;nan
23321;BME280;33376;51.306;4.752;2023-04-08T01:32:13;102613.88;;;9.17;nan
23321;BME280;33376;51.306;4.752;2023-04-08T01:34:38;102606.69;;;9.23;nan
23321;BME280;33376;51.306;4.752;2023-04-08T01:37:05;102610.25;;;9.21;nan
23321;BME280;33376;51.306;4.752;2023-04-08T01:39:32;102615.53;;;9.22;nan
23321;BME280;33376;51.306;4.752;2023-04-08T01:41:57;102607.22;;;9.39;nan
23321;BME280;33376;51.306;4.752;2023-04-08T01:44:23;102610.75;;;9.39;nan
23321;BME280;33376;51.306;4.752;2023-04-08T01:46:50;102606.75;;;9.20;nan
23321;BME280;33376;51.306;4.752;2023-04-08T01:49:16;102603.13;;;9.24;nan
23321;BME280;33376;51.306;4.752;2023-04-08T01:51:42;102607.59;;;9.22;nan
23321;BME280;33376;51.306;4.752;2023-04-08T01:54:08;102594.31;;;9.24;nan
23321;BME280;33376;51.306;4.752;2023-04-08T01:56:35;102594.19;;;9.30;nan
23321;BME280;33376;51.306;4.752;2023-04-08T01:59:01;102583.91;;;9.15;nan
23321;BME280;33376;51.306;4.752;2023-04-08T02:01:27;102576.97;;;9.11;nan
23321;BME280;33376;51.306;4.752;2023-04-08T02:03:53;102569.09;;;9.08;nan
23321;BME280;33376;51.306;4.752;2023-04-08T02:06:21;102551.41;;;9.08;nan
23321;BME280;33376;51.306;4.752;2023-04-08T02:08:46;102543.47;;;9.08;nan
23321;BME280;33376;51.306;4.752;2023-04-08T02:11:11;102534.69;;;9.08;nan
23321;BME280;33376;51.306;4.752;2023-04-08T02:13:37;102532.13;;;9.03;nan
23321;BME280;33376;51.306;4.752;2023-04-08T02:16:08;102515.41;;;9.03;nan
23321;BME280;33376;51.306;4.752;2023-04-08T02:18:35;102495.94;;;9.04;nan
23321;BME280;33376;51.306;4.752;2023-04-08T02:21:13;102484.50;;;9.03;nan
23321;BME280;33376;51.306;4.752;2023-04-08T02:23:39;102476.63;;;9.00;nan
23321;BME280;33376;51.306;4.752;2023-04-08T02:26:06;102466.06;;;8.99;nan
23321;BME280;33376;51.306;4.752;2023-04-08T02:28:32;102459.13;;;8.95;nan
23321;BME280;33376;51.306;4.752;2023-04-08T02:30:59;102468.75;;;8.97;nan
23321;BME280;33376;51.306;4.752;2023-04-08T02:33:26;102462.56;;;9.00;nan
23321;BME280;33376;51.306;4.752;2023-04-08T02:35:52;102446.00;;;8.90;nan
23321;BME280;33376;51.306;4.752;2023-04-08T02:38:19;102449.44;;;8.95;nan
23321;BME280;33376;51.306;4.752;2023-04-08T02:40:44;102448.91;;;9.16;nan
23321;BME280;33376;51.306;4.752;2023-04-08T02:43:09;102455.00;;;9.20;nan
23321;BME280;33376;51.306;4.752;2023-04-08T02:45:39;102446.97;;;9.24;nan
23321;BME280;33376;51.306;4.752;2023-04-08T02:48:05;102447.03;;;9.21;nan
23321;BME280;33376;51.306;4.752;2023-04-08T02:50:31;102442.31;;;8.97;nan
23321;BME280;33376;51.306;4.752;2023-04-08T02:52:56;102434.41;;;8.96;nan
23321;BME280;33376;51.306;4.752;2023-04-08T02:55:21;102427.13;;;9.05;nan
23321;BME280;33376;51.306;4.752;2023-04-08T02:57:47;102422.63;;;9.09;nan
23321;BME280;33376;51.306;4.752;2023-04-08T03:00:12;102412.09;;;9.07;nan
23321;BME280;33376;51.306;4.752;2023-04-08T03:02:38;102401.69;;;9.00;nan
23321;BME280;33376;51.306;4.752;2023-04-08T03:05:03;102393.84;;;8.97;nan
23321;BME280;33376;51.306;4.752;2023-04-08T03:07:30;102413.00;;;9.06;nan
23321;BME280;33376;51.306;4.752;2023-04-08T03:09:55;102410.28;;;9.09;nan
23321;BME280;33376;51.306;4.752;2023-04-08T03:12:20;102400.56;;;9.10;nan
23321;BME280;33376;51.306;4.752;2023-04-08T03:14:45;102392.72;;;9.05;nan
23321;BME280;33376;51.306;4.752;2023-04-08T03:17:11;102390.13;;;9.04;nan
23321;BME280;33376;51.306;4.752;2023-04-08T03:19:36;102393.03;;;8.93;nan
23321;BME280;33376;51.306;4.752;2023-04-08T03:22:01;102384.13;;;8.96;nan
23321;BME280;33376;51.306;4.752;2023-04-08T03:24:26;102376.06;;;9.02;nan
23321;BME280;33376;51.306;4.752;2023-04-08T03:26:52;102384.88;;;9.02;nan
23321;BME280;33376;51.306;4.752;2023-04-08T03:29:17;102375.13;;;9.04;nan
23321;BME280;33376;51.306;4.752;2023-04-08T03:31:42;102372.63;;;8.98;nan
23321;BME280;33376;51.306;4.752;2023-04-08T03:34:08;102367.34;;;8.98;nan
23321;BME280;33376;51.306;4.752;2023-04-08T03:36:33;102373.44;;;9.00;nan
23321;BME280;33376;51.306;4.752;2023-04-08T03:38:58;102378.16;;;8.87;nan
23321;BME280;33376;51.306;4.752;2023-04-08T03:41:28;102366.44;;;8.99;nan
23321;BME280;33376;51.306;4.752;2023-04-08T03:43:53;102370.00;;;8.98;nan
23321;BME280;33376;51.306;4.752;2023-04-08T03:46:18;102362.91;;;8.99;nan
23321;BME280;33376;51.306;4.752;2023-04-08T03:48:48;102366.34;;;9.02;nan
23321;BME280;33376;51.306;4.752;2023-04-08T03:51:13;102370.63;;;9.08;nan
23321;BME280;33376;51.306;4.752;2023-04-08T03:53:39;102362.13;;;8.95;nan
23321;BME280;33376;51.306;4.752;2023-04-08T03:56:07;102367.47;;;8.92;nan
23321;BME280;33376;51.306;4.752;2023-04-08T03:58:34;102363.78;;;8.99;nan
23321;BME280;33376;51.306;4.752;2023-04-08T04:01:09;102364.63;;;9.01;nan
23321;BME280;33376;51.306;4.752;2023-04-08T04:03:34;102369.88;;;9.03;nan
23321;BME280;33376;51.306;4.752;2023-04-08T04:06:03;102367.22;;;9.03;nan
23321;BME280;33376;51.306;4.752;2023-04-08T04:08:28;102366.31;;;9.04;nan
23321;BME280;33376;51.306;4.752;2023-04-08T04:10:57;102360.81;;;9.11;nan
23321;BME280;33376;51.306;4.752;2023-04-08T04:13:23;102360.19;;;9.02;nan
23321;BME280;33376;51.306;4.752;2023-04-08T04:15:51;102361.28;;;8.93;nan
23321;BME280;33376;51.306;4.752;2023-04-08T04:18:17;102349.00;;;8.90;nan
23321;BME280;33376;51.306;4.752;2023-04-08T04:20:42;102356.19;;;8.84;nan
23321;BME280;33376;51.306;4.752;2023-04-08T04:23:07;102356.13;;;8.88;nan
23321;BME280;33376;51.306;4.752;2023-04-08T04:25:33;102368.28;;;8.57;nan
23321;BME280;33376;51.306;4.752;2023-04-08T04:27:58;102369.59;;;8.38;nan
23321;BME280;33376;51.306;4.752;2023-04-08T04:30:23;102365.38;;;8.28;nan
23321;BME280;33376;51.306;4.752;2023-04-08T04:32:49;102372.56;;;8.20;nan
23321;BME280;33376;51.306;4.752;2023-04-08T04:35:14;102370.16;;;8.10;nan
23321;BME280;33376;51.306;4.752;2023-04-08T04:37:39;102370.97;;;8.13;nan
23321;BME280;33376;51.306;4.752;2023-04-08T04:40:05;102363.31;;;8.00;nan
23321;BME280;33376;51.306;4.752;2023-04-08T04:42:31;102370.53;;;7.90;nan
23321;BME280;33376;51.306;4.752;2023-04-08T04:44:57;102381.19;;;7.86;nan
23321;BME280;33376;51.306;4.752;2023-04-08T04:47:23;102382.13;;;7.83;nan
23321;BME280;33376;51.306;4.752;2023-04-08T04:49:48;102367.84;;;7.93;nan
23321;BME280;33376;51.306;4.752;2023-04-08T04:52:13;102379.31;;;7.92;nan
23321;BME280;33376;51.306;4.752;2023-04-08T04:54:38;102371.47;;;7.88;nan
23321;BME280;33376;51.306;4.752;2023-04-08T04:57:04;102375.03;;;7.85;nan
23321;BME280;33376;51.306;4.752;2023-04-08T04:59:29;102377.69;;;7.85;nan
23321;BME280;33376;51.306;4.752;2023-04-08T05:01:57;102377.66;;;7.87;nan
23321;BME280;33376;51.306;4.752;2023-04-08T05:04:23;102381.16;;;7.87;nan
23321;BME280;33376;51.306;4.752;2023-04-08T05:06:48;102370.50;;;7.92;nan
23321;BME280;33376;51.306;4.752;2023-04-08T05:09:13;102372.28;;;7.93;nan
23321;BME280;33376;51.306;4.752;2023-04-08T05:11:39;102369.53;;;7.97;nan
23321;BME280;33376;51.306;4.752;2023-04-08T05:14:04;102367.44;;;8.13;nan
23321;BME280;33376;51.306;4.752;2023-04-08T05:16:30;102371.88;;;8.11;nan
23321;BME280;33376;51.306;4.752;2023-04-08T05:18:56;102367.53;;;8.08;nan
23321;BME280;33376;51.306;4.752;2023-04-08T05:21:21;102369.31;;;8.08;nan
23321;BME280;33376;51.306;4.752;2023-04-08T05:23:46;102368.38;;;8.12;nan
23321;BME280;33376;51.306;4.752;2023-04-08T05:26:11;102368.25;;;8.16;nan
23321;BME280;33376;51.306;4.752;2023-04-08T05:28:37;102369.09;;;8.18;nan
23321;BME280;33376;51.306;4.752;2023-04-08T05:31:02;102365.34;;;8.30;nan
23321;BME280;33376;51.306;4.752;2023-04-08T05:33:27;102371.41;;;8.35;nan
23321;BME280;33376;51.306;4.752;2023-04-08T05:35:52;102366.03;;;8.39;nan
23321;BME280;33376;51.306;4.752;2023-04-08T05:38:18;102367.81;;;8.39;nan
23321;BME280;33376;51.306;4.752;2023-04-08T05:40:43;102362.44;;;8.43;nan
23321;BME280;33376;51.306;4.752;2023-04-08T05:43:08;102369.38;;;8.47;nan
23321;BME280;33376;51.306;4.752;2023-04-08T05:45:33;102360.47;;;8.53;nan
23321;BME280;33376;51.306;4.752;2023-04-08T05:48:01;102367.53;;;8.51;nan
23321;BME280;33376;51.306;4.752;2023-04-08T05:50:26;102366.47;;;8.59;nan
23321;BME280;33376;51.306;4.752;2023-04-08T05:52:51;102371.66;;;8.64;nan
23321;BME280;33376;51.306;4.752;2023-04-08T05:55:16;102360.97;;;8.68;nan
23321;BME280;33376;51.306;4.752;2023-04-08T05:57:42;102374.00;;;8.76;nan
23321;BME280;33376;51.306;4.752;2023-04-08T06:00:07;102368.59;;;8.82;nan
23321;BME280;33376;51.306;4.752;2023-04-08T06:02:36;102364.03;;;8.88;nan
23321;BME280;33376;51.306;4.752;2023-04-08T06:05:02;102367.38;;;8.97;nan
23321;BME280;33376;51.306;4.752;2023-04-08T06:07:31;102369.09;;;8.98;nan
23321;BME280;33376;51.306;4.752;2023-04-08T06:09:56;102369.91;;;9.01;nan
23321;BME280;33376;51.306;4.752;2023-04-08T06:12:21;102366.16;;;9.10;nan
23321;BME280;33376;51.306;4.752;2023-04-08T06:14:46;102366.13;;;9.11;nan
23321;BME280;33376;51.306;4.752;2023-04-08T06:17:12;102369.41;;;9.22;nan
23321;BME280;33376;51.306;4.752;2023-04-08T06:19:37;102376.97;;;9.36;nan
23321;BME280;33376;51.306;4.752;2023-04-08T06:22:02;102374.13;;;9.43;nan
23321;BME280;33376;51.306;4.752;2023-04-08T06:24:27;102378.44;;;9.47;nan
23321;BME280;33376;51.306;4.752;2023-04-08T06:26:53;102384.47;;;9.54;nan
23321;BME280;33376;51.306;4.752;2023-04-08T06:29:22;102381.41;;;9.69;nan
23321;BME280;33376;51.306;4.752;2023-04-08T06:31:48;102381.09;;;9.81;nan
23321;BME280;33376;51.306;4.752;2023-04-08T06:34:13;102387.13;;;9.86;nan
23321;BME280;33376;51.306;4.752;2023-04-08T06:36:38;102384.47;;;9.86;nan
23321;BME280;33376;51.306;4.752;2023-04-08T06:39:04;102392.31;;;9.90;nan
23321;BME280;33376;51.306;4.752;2023-04-08T06:41:29;102392.78;;;10.04;nan
23321;BME280;33376;51.306;4.752;2023-04-08T06:43:54;102409.66;;;10.00;nan
23321;BME280;33376;51.306;4.752;2023-04-08T06:46:20;102415.53;;;9.81;nan
23321;BME280;33376;51.306;4.752;2023-04-08T06:48:45;102419.78;;;9.86;nan
23321;BME280;33376;51.306;4.752;2023-04-08T06:51:10;102420.06;;;10.09;nan
23321;BME280;33376;51.306;4.752;2023-04-08T06:53:36;102430.81;;;10.03;nan
23321;BME280;33376;51.306;4.752;2023-04-08T06:56:01;102429.09;;;10.01;nan
23321;BME280;33376;51.306;4.752;2023-04-08T06:58:26;102437.97;;;10.00;nan
23321;BME280;33376;51.306;4.752;2023-04-08T07:00:54;102445.84;;;10.03;nan
23321;BME280;33376;51.306;4.752;2023-04-08T07:03:20;102453.41;;;9.83;nan
23321;BME280;33376;51.306;4.752;2023-04-08T07:05:46;102474.34;;;9.93;nan
23321;BME280;33376;51.306;4.752;2023-04-08T07:08:11;102474.81;;;9.75;nan
23321;BME280;33376;51.306;4.752;2023-04-08T07:10:36;102474.41;;;9.92;nan
23321;BME280;33376;51.306;4.752;2023-04-08T07:13:02;102485.66;;;10.00;nan
23321;BME280;33376;51.306;4.752;2023-04-08T07:15:27;102485.50;;;10.06;nan
23321;BME280;33376;51.306;4.752;2023-04-08T07:17:52;102488.34;;;9.98;nan
23321;BME280;33376;51.306;4.752;2023-04-08T07:20:20;102488.09;;;10.09;nan
23321;BME280;33376;51.306;4.752;2023-04-08T07:22:46;102493.91;;;9.88;nan
23321;BME280;33376;51.306;4.752;2023-04-08T07:25:12;102502.38;;;10.03;nan
23321;BME280;33376;51.306;4.752;2023-04-08T07:27:37;102504.19;;;10.01;nan
23321;BME280;33376;51.306;4.752;2023-04-08T07:30:02;102510.81;;;10.19;nan
23321;BME280;33376;51.306;4.752;2023-04-08T07:32:28;102519.69;;;10.16;nan
23321;BME280;33376;51.306;4.752;2023-04-08T07:34:53;102528.66;;;10.12;nan
23321;BME280;33376;51.306;4.752;2023-04-08T07:37:18;102536.19;;;9.94;nan
23321;BME280;33376;51.306;4.752;2023-04-08T07:39:43;102541.59;;;9.88;nan
23321;BME280;33376;51.306;4.752;2023-04-08T07:42:09;102548.66;;;9.89;nan
23321;BME280;33376;51.306;4.752;2023-04-08T07:44:34;102555.88;;;9.82;nan
23321;BME280;33376;51.306;4.752;2023-04-08T07:47:00;102561.19;;;9.82;nan
23321;BME280;33376;51.306;4.752;2023-04-08T07:49:25;102561.06;;;9.87;nan
23321;BME280;33376;51.306;4.752;2023-04-08T07:51:50;102568.53;;;10.08;nan
23321;BME280;33376;51.306;4.752;2023-04-08T07:54:17;102579.97;;;10.07;nan
23321;BME280;33376;51.306;4.752;2023-04-08T07:56:42;102579.25;;;10.00;nan
23321;BME280;33376;51.306;4.752;2023-04-08T07:59:09;102603.09;;;10.02;nan
23321;BME280;33376;51.306;4.752;2023-04-08T08:01:34;102610.28;;;9.97;nan
23321;BME280;33376;51.306;4.752;2023-04-08T08:04:00;102621.22;;;10.20;nan
23321;BME280;33376;51.306;4.752;2023-04-08T08:06:25;102645.16;;;10.17;nan
23321;BME280;33376;51.306;4.752;2023-04-08T08:08:51;102669.75;;;10.23;nan
23321;BME280;33376;51.306;4.752;2023-04-08T08:11:17;102689.09;;;10.27;nan
23321;BME280;33376;51.306;4.752;2023-04-08T08:13:42;102703.00;;;10.37;nan
23321;BME280;33376;51.306;4.752;2023-04-08T08:16:07;102722.06;;;10.52;nan
23321;BME280;33376;51.306;4.752;2023-04-08T08:18:35;102739.13;;;10.41;nan
23321;BME280;33376;51.306;4.752;2023-04-08T08:21:01;102755.84;;;10.44;nan
23321;BME280;33376;51.306;4.752;2023-04-08T08:23:26;102764.38;;;10.92;nan
23321;BME280;33376;51.306;4.752;2023-04-08T08:26:01;102773.75;;;10.71;nan
23321;BME280;33376;51.306;4.752;2023-04-08T08:28:27;102784.28;;;10.74;nan
23321;BME280;33376;51.306;4.752;2023-04-08T08:30:52;102794.31;;;10.98;nan
23321;BME280;33376;51.306;4.752;2023-04-08T08:33:17;102798.84;;;10.93;nan
23321;BME280;33376;51.306;4.752;2023-04-08T08:35:43;102813.78;;;10.62;nan
23321;BME280;33376;51.306;4.752;2023-04-08T08:38:08;102813.34;;;10.42;nan
23321;BME280;33376;51.306;4.752;2023-04-08T08:40:33;102821.09;;;10.53;nan
23321;BME280;33376;51.306;4.752;2023-04-08T08:42:58;102824.47;;;10.59;nan
23321;BME280;33376;51.306;4.752;2023-04-08T08:45:25;102824.78;;;10.46;nan
23321;BME280;33376;51.306;4.752;2023-04-08T08:47:50;102831.88;;;10.44;nan
23321;BME280;33376;51.306;4.752;2023-04-08T08:50:16;102833.97;;;10.68;nan
23321;BME280;33376;51.306;4.752;2023-04-08T08:52:47;102834.56;;;11.15;nan
23321;BME280;33376;51.306;4.752;2023-04-08T08:55:12;102837.00;;;11.24;nan
23321;BME280;33376;51.306;4.752;2023-04-08T08:57:37;102835.41;;;11.17;nan
23321;BME280;33376;51.306;4.752;2023-04-08T09:00:02;102852.66;;;11.00;nan
23321;BME280;33376;51.306;4.752;2023-04-08T09:02:29;102849.19;;;10.60;nan
23321;BME280;33376;51.306;4.752;2023-04-08T09:05:01;102850.00;;;10.63;nan
23321;BME280;33376;51.306;4.752;2023-04-08T09:07:28;102849.31;;;10.55;nan
23321;BME280;33376;51.306;4.752;2023-04-08T09:09:54;102849.00;;;10.69;nan
23321;BME280;33376;51.306;4.752;2023-04-08T09:12:20;102854.44;;;10.63;nan
23321;BME280;33376;51.306;4.752;2023-04-08T09:14:45;102858.13;;;10.57;nan
23321;BME280;33376;51.306;4.752;2023-04-08T09:17:11;102862.38;;;10.63;nan
23321;BME280;33376;51.306;4.752;2023-04-08T09:19:36;102861.41;;;10.68;nan
23321;BME280;33376;51.306;4.752;2023-04-08T09:22:05;102856.84;;;10.73;nan
23321;BME280;33376;51.306;4.752;2023-04-08T09:24:31;102862.09;;;10.76;nan
23321;BME280;33376;51.306;4.752;2023-04-08T09:26:57;102863.75;;;10.82;nan
23321;BME280;33376;51.306;4.752;2023-04-08T09:29:22;102863.94;;;11.09;nan
23321;BME280;33376;51.306;4.752;2023-04-08T09:31:48;102870.53;;;11.28;nan
23321;BME280;33376;51.306;4.752;2023-04-08T09:34:17;102858.69;;;11.41;nan
23321;BME280;33376;51.306;4.752;2023-04-08T09:36:44;102872.78;;;11.78;nan
23321;BME280;33376;51.306;4.752;2023-04-08T09:39:10;102851.06;;;11.94;nan
23321;BME280;33376;51.306;4.752;2023-04-08T09:41:36;102851.63;;;11.74;nan
23321;BME280;33376;51.306;4.752;2023-04-08T09:44:02;102834.78;;;12.06;nan
23321;BME280;33376;51.306;4.752;2023-04-08T09:46:32;102812.16;;;11.91;nan
23321;BME280;33376;51.306;4.752;2023-04-08T09:54:31;102754.53;;;12.48;nan
23321;BME280;33376;51.306;4.752;2023-04-08T09:57:08;102765.88;;;12.26;nan
23321;BME280;33376;51.306;4.752;2023-04-08T09:59:34;102786.13;;;11.71;nan
23321;BME280;33376;51.306;4.752;2023-04-08T10:02:03;102802.88;;;12.06;nan
23321;BME280;33376;51.306;4.752;2023-04-08T10:04:29;102792.19;;;12.36;nan
23321;BME280;33376;51.306;4.752;2023-04-08T10:07:01;102792.19;;;12.62;nan
23321;BME280;33376;51.306;4.752;2023-04-08T10:09:28;102787.66;;;12.66;nan
23321;BME280;33376;51.306;4.752;2023-04-08T10:11:53;102765.13;;;13.28;nan
23321;BME280;33376;51.306;4.752;2023-04-08T10:14:19;102746.25;;;13.82;nan
23321;BME280;33376;51.306;4.752;2023-04-08T10:16:46;102704.47;;;13.82;nan
23321;BME280;33376;51.306;4.752;2023-04-08T10:22:57;102655.69;;;14.02;nan
23321;BME280;33376;51.306;4.752;2023-04-08T10:25:27;102636.28;;;14.82;nan
23321;BME280;33376;51.306;4.752;2023-04-08T10:27:52;102566.03;;;15.18;nan
23321;BME280;33376;51.306;4.752;2023-04-08T10:32:54;102617.47;;;13.80;nan
23321;BME280;33376;51.306;4.752;2023-04-08T10:36:21;102619.66;;;14.13;nan
23321;BME280;33376;51.306;4.752;2023-04-08T10:38:15;102638.56;;;13.86;nan
23321;BME280;33376;51.306;4.752;2023-04-08T10:40:41;102673.41;;;13.35;nan
23321;BME280;33376;51.306;4.752;2023-04-08T10:43:07;102687.34;;;13.18;nan
23321;BME280;33376;51.306;4.752;2023-04-08T10:45:32;102701.44;;;12.96;nan
23321;BME280;33376;51.306;4.752;2023-04-08T10:50:59;102739.19;;;12.82;nan
23321;BME280;33376;51.306;4.752;2023-04-08T10:53:25;102762.31;;;13.08;nan
23321;BME280;33376;51.306;4.752;2023-04-08T10:55:51;102723.19;;;13.58;nan
23321;BME280;33376;51.306;4.752;2023-04-08T10:58:17;102721.31;;;13.37;nan
23321;BME280;33376;51.306;4.752;2023-04-08T11:00:43;102716.56;;;12.95;nan
23321;BME280;33376;51.306;4.752;2023-04-08T11:03:08;102703.44;;;13.86;nan
23321;BME280;33376;51.306;4.752;2023-04-08T11:05:34;102665.59;;;14.63;nan
23321;BME280;33376;51.306;4.752;2023-04-08T11:08:01;102668.19;;;15.05;nan
23321;BME280;33376;51.306;4.752;2023-04-08T11:10:26;102623.34;;;14.73;nan
23321;BME280;33376;51.306;4.752;2023-04-08T11:12:53;102633.56;;;14.83;nan
23321;BME280;33376;51.306;4.752;2023-04-08T11:15:18;102602.13;;;15.08;nan
23321;BME280;33376;51.306;4.752;2023-04-08T11:17:43;102621.69;;;14.50;nan
23321;BME280;33376;51.306;4.752;2023-04-08T11:20:09;102657.63;;;14.41;nan
23321;BME280;33376;51.306;4.752;2023-04-08T11:22:34;102656.75;;;14.41;nan
23321;BME280;33376;51.306;4.752;2023-04-08T11:25:00;102657.84;;;13.92;nan
23321;BME280;33376;51.306;4.752;2023-04-08T11:27:26;102649.59;;;13.54;nan
23321;BME280;33376;51.306;4.752;2023-04-08T11:29:52;102630.59;;;13.40;nan
23321;BME280;33376;51.306;4.752;2023-04-08T11:32:19;102632.75;;;13.30;nan
23321;BME280;33376;51.306;4.752;2023-04-08T11:34:45;102648.25;;;13.65;nan
23321;BME280;33376;51.306;4.752;2023-04-08T11:37:11;102618.31;;;14.23;nan
23321;BME280;33376;51.306;4.752;2023-04-08T11:39:41;102568.78;;;14.78;nan
23321;BME280;33376;51.306;4.752;2023-04-08T11:42:07;102528.84;;;15.14;nan
23321;BME280;33376;51.306;4.752;2023-04-08T11:44:32;102516.03;;;14.83;nan
23321;BME280;33376;51.306;4.752;2023-04-08T11:46:58;102521.44;;;14.63;nan
23321;BME280;33376;51.306;4.752;2023-04-08T11:49:23;102525.25;;;13.96;nan
23321;BME280;33376;51.306;4.752;2023-04-08T11:51:58;102563.16;;;13.38;nan
23321;BME280;33376;51.306;4.752;2023-04-08T11:54:30;102593.44;;;13.58;nan
23321;BME280;33376;51.306;4.752;2023-04-08T11:56:56;102589.25;;;13.74;nan
23321;BME280;33376;51.306;4.752;2023-04-08T11:59:22;102568.50;;;14.45;nan
23321;BME280;33376;51.306;4.752;2023-04-08T12:01:47;102543.72;;;14.62;nan
23321;BME280;33376;51.306;4.752;2023-04-08T12:04:12;102536.41;;;14.47;nan
23321;BME280;33376;51.306;4.752;2023-04-08T12:06:38;102539.22;;;14.42;nan
23321;BME280;33376;51.306;4.752;2023-04-08T12:09:03;102502.03;;;14.78;nan
23321;BME280;33376;51.306;4.752;2023-04-08T12:11:28;102485.94;;;14.80;nan
23321;BME280;33376;51.306;4.752;2023-04-08T12:13:54;102476.22;;;15.16;nan
23321;BME280;33376;51.306;4.752;2023-04-08T12:16:19;102425.97;;;14.87;nan
23321;BME280;33376;51.306;4.752;2023-04-08T12:18:45;102453.50;;;15.24;nan
23321;BME280;33376;51.306;4.752;2023-04-08T12:21:10;102404.66;;;15.04;nan
23321;BME280;33376;51.306;4.752;2023-04-08T12:23:36;102354.34;;;15.98;nan
23321;BME280;33376;51.306;4.752;2023-04-08T12:26:01;102362.94;;;15.88;nan
23321;BME280;33376;51.306;4.752;2023-04-08T12:28:26;102291.50;;;16.69;nan
23321;BME280;33376;51.306;4.752;2023-04-08T12:30:51;102254.41;;;15.99;nan
23321;BME280;33376;51.306;4.752;2023-04-08T12:33:17;102297.84;;;15.55;nan
23321;BME280;33376;51.306;4.752;2023-04-08T12:35:42;102379.75;;;16.07;nan
23321;BME280;33376;51.306;4.752;2023-04-08T12:38:07;102403.53;;;15.26;nan
23321;BME280;33376;51.306;4.752;2023-04-08T12:40:32;102402.03;;;15.56;nan
23321;BME280;33376;51.306;4.752;2023-04-08T12:42:58;102376.59;;;15.99;nan
23321;BME280;33376;51.306;4.752;2023-04-08T12:45:23;102264.13;;;16.49;nan
23321;BME280;33376;51.306;4.752;2023-04-08T12:47:48;102234.50;;;15.72;nan
23321;BME280;33376;51.306;4.752;2023-04-08T12:50:13;102290.66;;;16.05;nan
23321;BME280;33376;51.306;4.752;2023-04-08T12:52:39;102247.53;;;15.46;nan
23321;BME280;33376;51.306;4.752;2023-04-08T12:55:05;102324.50;;;15.56;nan
23321;BME280;33376;51.306;4.752;2023-04-08T12:57:30;102360.78;;;15.94;nan
23321;BME280;33376;51.306;4.752;2023-04-08T12:59:56;102287.81;;;16.08;nan
23321;BME280;33376;51.306;4.752;2023-04-08T13:02:21;102240.34;;;16.89;nan
23321;BME280;33376;51.306;4.752;2023-04-08T13:04:46;102149.28;;;15.97;nan
23321;BME280;33376;51.306;4.752;2023-04-08T13:07:13;102199.03;;;15.69;nan
23321;BME280;33376;51.306;4.752;2023-04-08T13:09:39;102173.88;;;15.88;nan
23321;BME280;33376;51.306;4.752;2023-04-08T13:12:04;102140.22;;;16.16;nan
23321;BME280;33376;51.306;4.752;2023-04-08T13:14:29;102222.16;;;16.34;nan
23321;BME280;33376;51.306;4.752;2023-04-08T13:16:55;102264.72;;;16.69;nan
23321;BME280;33376;51.306;4.752;2023-04-08T13:19:20;102241.56;;;16.68;nan
23321;BME280;33376;51.306;4.752;2023-04-08T13:21:46;102289.22;;;15.82;nan
23321;BME280;33376;51.306;4.752;2023-04-08T13:24:11;102346.09;;;15.69;nan
23321;BME280;33376;51.306;4.752;2023-04-08T13:26:36;102378.13;;;14.82;nan